createdAt,value
2018-12-24T00:19:45.562Z,7.45
2018-12-24T00:22:17.278Z,7.45
2018-12-24T00:24:49.276Z,7.35
2018-12-24T00:27:19.983Z,7.20
2018-12-24T00:29:52.108Z,7.11
2018-12-24T00:32:22.849Z,7.11
2018-12-24T00:34:55.272Z,7.06
2018-12-24T00:37:25.810Z,6.95
2018-12-24T00:39:57.914Z,6.81
2018-12-24T00:42:30.281Z,6.76
2018-12-24T00:45:02.314Z,6.72
2018-12-24T00:47:34.414Z,6.69
2018-12-24T00:50:06.669Z,6.59
2018-12-24T00:52:38.746Z,6.59
2018-12-24T00:55:11.120Z,6.55
2018-12-24T00:57:41.851Z,6.48
2018-12-24T01:00:14.125Z,6.48
2018-12-24T01:02:46.325Z,6.53
2018-12-24T01:05:17.002Z,6.47
2018-12-24T01:07:49.275Z,6.43
2018-12-24T01:10:20.118Z,6.52
2018-12-24T01:12:51.050Z,6.49
2018-12-24T01:15:23.292Z,6.46
2018-12-24T01:17:55.533Z,6.48
2018-12-24T01:20:27.889Z,6.48
2018-12-24T01:23:00.318Z,6.52
2018-12-24T01:25:32.598Z,6.56
2018-12-24T01:28:04.761Z,6.56
2018-12-24T01:30:37.273Z,6.52
2018-12-24T01:33:08.259Z,6.46
2018-12-24T01:35:39.009Z,6.49
2018-12-24T01:38:11.293Z,6.45
2018-12-24T01:40:43.593Z,6.47
2018-12-24T01:43:15.891Z,6.41
2018-12-24T01:45:48.270Z,6.36
2018-12-24T01:48:19.100Z,6.28
2018-12-24T01:50:51.281Z,6.24
2018-12-24T01:53:22.032Z,6.23
2018-12-24T01:55:54.273Z,6.11
2018-12-24T01:58:26.268Z,6.18
2018-12-24T02:00:57.279Z,6.18
2018-12-24T02:03:28.024Z,6.12
2018-12-24T02:06:00.283Z,6.06
2018-12-24T02:08:32.373Z,6.03
2018-12-24T02:11:04.713Z,6.03
2018-12-24T02:13:37.134Z,5.99
2018-12-24T02:16:08.276Z,6.00
2018-12-24T02:18:39.276Z,5.97
2018-12-24T02:21:10.028Z,5.98
2018-12-24T02:23:42.398Z,5.95
2018-12-24T02:26:15.273Z,6.00
2018-12-24T02:28:46.051Z,6.00
2018-12-24T02:31:16.814Z,5.98
2018-12-24T02:33:49.275Z,6.01
2018-12-24T02:36:20.054Z,6.06
2018-12-24T02:38:52.413Z,6.15
2018-12-24T02:41:24.758Z,6.13
2018-12-24T02:43:57.295Z,6.13
2018-12-24T02:46:29.389Z,6.15
2018-12-24T02:49:01.687Z,6.20
2018-12-24T02:51:34.290Z,6.20
2018-12-24T02:54:06.429Z,6.18
2018-12-24T02:56:38.717Z,6.18
2018-12-24T02:59:10.980Z,6.18
2018-12-24T03:01:43.143Z,6.18
2018-12-24T03:04:13.947Z,6.16
2018-12-24T03:06:46.306Z,6.15
2018-12-24T03:09:18.653Z,6.15
2018-12-24T03:11:50.971Z,6.15
2018-12-24T03:14:23.291Z,6.16
2018-12-24T03:16:54.293Z,6.20
2018-12-24T03:19:25.310Z,6.19
2018-12-24T03:21:57.490Z,6.22
2018-12-24T03:24:29.956Z,6.20
2018-12-24T03:27:02.297Z,6.20
2018-12-24T03:29:34.307Z,6.23
2018-12-24T03:32:05.248Z,6.27
2018-12-24T03:34:36.291Z,6.20
2018-12-24T03:37:08.305Z,6.11
2018-12-24T03:39:39.021Z,6.07
2018-12-24T03:42:11.326Z,6.13
2018-12-24T03:44:42.018Z,6.20
2018-12-24T03:47:14.654Z,6.18
2018-12-24T03:49:47.139Z,6.14
2018-12-24T03:52:18.298Z,6.14
2018-12-24T03:54:49.055Z,6.16
2018-12-24T03:57:21.329Z,6.17
2018-12-24T03:59:53.315Z,6.14
2018-12-24T04:02:24.294Z,6.12
2018-12-24T04:04:57.789Z,6.12
2018-12-24T04:07:29.953Z,6.13
2018-12-24T04:10:02.293Z,6.13
2018-12-24T04:12:34.410Z,6.16
2018-12-24T04:17:49.435Z,6.12
2018-12-24T04:20:21.389Z,6.10
2018-12-24T04:22:53.677Z,6.10
2018-12-24T04:25:26.280Z,6.10
2018-12-24T04:27:57.119Z,6.09
2018-12-24T04:30:27.903Z,6.07
2018-12-24T04:33:00.308Z,6.07
2018-12-24T04:35:32.306Z,6.07
2018-12-24T04:38:03.132Z,6.03
2018-12-24T04:40:34.261Z,6.00
2018-12-24T04:43:05.109Z,6.02
2018-12-24T04:45:37.347Z,6.00
2018-12-24T04:48:08.287Z,5.95
2018-12-24T04:50:38.726Z,5.92
2018-12-24T04:53:11.287Z,5.84
2018-12-24T04:55:41.993Z,5.86
2018-12-24T04:58:14.289Z,5.82
2018-12-24T05:00:46.428Z,5.83
2018-12-24T05:03:18.873Z,5.83
2018-12-24T05:05:51.302Z,5.80
2018-12-24T05:08:23.662Z,5.74
2018-12-24T05:10:55.896Z,5.75
2018-12-24T05:13:28.278Z,5.64
2018-12-24T05:16:00.709Z,5.66
2018-12-24T05:18:33.317Z,5.68
2018-12-24T05:21:05.633Z,5.64
2018-12-24T05:23:37.888Z,5.64
2018-12-24T05:26:10.293Z,5.66
2018-12-24T05:28:42.597Z,5.69
2018-12-24T05:31:14.968Z,5.73
2018-12-24T05:33:47.287Z,5.71
2018-12-24T05:36:19.304Z,5.73
2018-12-24T05:38:50.287Z,5.77
2018-12-24T05:41:21.122Z,5.73
2018-12-24T05:43:51.911Z,5.73
2018-12-24T05:46:24.286Z,5.73
2018-12-24T05:48:55.054Z,5.72
2018-12-24T05:54:14.277Z,5.75
2018-12-24T05:56:46.290Z,5.73
2018-12-24T05:59:17.115Z,5.80
2018-12-24T06:01:49.339Z,5.74
2018-12-24T06:04:22.264Z,5.84
2018-12-24T06:06:53.279Z,5.84
2018-12-24T06:09:24.286Z,5.93
2018-12-24T06:11:56.180Z,6.01
2018-12-24T06:14:27.157Z,6.11
2018-12-24T06:16:58.078Z,6.14
2018-12-24T06:19:30.307Z,6.16
2018-12-24T06:22:02.397Z,6.08
2018-12-24T06:24:34.783Z,5.93
2018-12-24T06:27:07.285Z,5.93
2018-12-24T06:29:38.120Z,5.93
2018-12-24T06:32:08.848Z,5.89
2018-12-24T06:34:41.296Z,5.84
2018-12-24T06:37:12.287Z,5.81
2018-12-24T06:39:43.119Z,5.72
2018-12-24T06:42:13.870Z,5.72
2018-12-24T06:44:46.287Z,5.67
2018-12-24T06:49:28.360Z,5.75
2018-12-24T06:52:00.603Z,5.72
2018-12-24T06:54:32.930Z,5.73
2018-12-24T06:57:05.283Z,5.73
2018-12-24T06:59:37.358Z,5.75
2018-12-24T07:02:08.281Z,5.77
2018-12-24T07:04:40.461Z,5.67
2018-12-24T07:07:12.743Z,5.78
2018-12-24T07:09:45.137Z,5.78
2018-12-24T07:12:17.466Z,5.84
2018-12-24T07:14:49.758Z,5.82
2018-12-24T07:17:22.291Z,5.82
2018-12-24T07:19:53.105Z,5.78
2018-12-24T07:22:25.599Z,5.81
2018-12-24T07:24:57.945Z,5.80
2018-12-24T07:27:32.292Z,5.77
2018-12-24T07:30:03.144Z,5.84
2018-12-24T07:32:35.664Z,5.77
2018-12-24T07:35:08.388Z,5.77
2018-12-24T07:37:40.355Z,5.78
2018-12-24T07:40:11.036Z,5.78
2018-12-24T07:42:43.123Z,5.71
2018-12-24T07:45:13.865Z,5.68
2018-12-24T07:47:45.950Z,5.65
2018-12-24T07:50:17.950Z,5.65
2018-12-24T07:52:50.126Z,5.72
2018-12-24T07:55:22.298Z,5.74
2018-12-24T07:57:53.020Z,5.75
2018-12-24T08:00:25.296Z,5.77
2018-12-24T08:02:57.294Z,5.71
2018-12-24T08:05:29.299Z,5.70
2018-12-24T08:08:00.285Z,5.74
2018-12-24T08:10:32.288Z,5.74
2018-12-24T08:13:03.175Z,5.68
2018-12-24T08:15:34.285Z,5.69
2018-12-24T08:18:05.036Z,5.65
2018-12-24T08:20:37.298Z,5.74
2018-12-24T08:23:08.021Z,5.73
2018-12-24T08:25:40.262Z,5.62
2018-12-24T08:28:11.041Z,5.65
2018-12-24T08:30:43.295Z,5.67
2018-12-24T08:33:15.328Z,5.70
2018-12-24T08:35:47.317Z,5.83
2018-12-24T08:38:19.400Z,5.88
2018-12-24T08:40:51.666Z,5.92
2018-12-24T08:43:23.766Z,5.92
2018-12-24T08:46:04.290Z,5.94
2018-12-24T08:48:58.298Z,5.90
2018-12-24T08:51:48.000Z,5.93
2018-12-24T08:54:34.380Z,5.93
2018-12-24T08:57:22.219Z,5.93
2018-12-24T09:00:09.979Z,6.00
2018-12-24T09:03:04.137Z,5.83
2018-12-24T09:05:43.093Z,5.83
2018-12-24T09:08:32.768Z,5.67
2018-12-24T09:11:09.466Z,5.67
2018-12-24T09:13:59.153Z,5.67
2018-12-24T09:16:43.424Z,5.67
2018-12-24T09:19:24.629Z,5.72
2018-12-24T09:21:58.546Z,5.72
2018-12-24T09:24:31.170Z,5.78
2018-12-24T09:27:16.298Z,5.80
2018-12-24T09:30:15.590Z,5.77
2018-12-24T09:32:50.944Z,5.75
2018-12-24T09:35:30.228Z,5.74
2018-12-24T09:38:08.189Z,5.81
2018-12-24T09:40:43.467Z,5.88
2018-12-24T09:43:15.882Z,6.02
2018-12-24T09:45:50.324Z,6.02
2018-12-24T09:48:24.118Z,6.00
2018-12-24T09:50:57.651Z,5.98
2018-12-24T09:53:29.941Z,5.99
2018-12-24T09:56:06.738Z,6.00
2018-12-24T09:58:54.213Z,6.00
2018-12-24T10:01:30.975Z,5.92
2018-12-24T10:04:23.311Z,5.92
2018-12-24T10:06:59.349Z,5.85
2018-12-24T10:09:33.413Z,5.55
2018-12-24T10:12:05.990Z,5.54
2018-12-24T10:14:40.174Z,5.54
2018-12-24T10:17:16.310Z,5.57
2018-12-24T10:19:50.339Z,5.56
2018-12-24T10:22:31.353Z,5.63
2018-12-24T10:25:10.006Z,5.63
2018-12-24T10:27:48.880Z,5.61
2018-12-24T10:30:19.419Z,5.66
2018-12-24T10:32:59.407Z,5.56
2018-12-24T10:35:41.369Z,5.56
2018-12-24T10:38:16.454Z,5.42
2018-12-24T10:41:19.959Z,5.37
2018-12-24T10:43:57.941Z,5.17
2018-12-24T10:46:33.489Z,5.13
2018-12-24T10:49:16.970Z,5.07
2018-12-24T10:51:56.388Z,5.13
2018-12-24T10:54:39.744Z,5.11
2018-12-24T10:57:25.464Z,5.06
2018-12-24T11:00:04.978Z,5.10
2018-12-24T11:02:42.622Z,5.10
2018-12-24T11:05:17.400Z,5.16
2018-12-24T11:08:04.119Z,5.30
2018-12-24T11:10:54.822Z,5.30
2018-12-24T11:13:48.065Z,5.36
2018-12-24T11:16:22.340Z,5.40
2018-12-24T11:19:00.388Z,5.37
2018-12-24T11:21:32.759Z,5.35
2018-12-24T11:24:10.346Z,5.23
2018-12-24T11:26:50.504Z,5.15
2018-12-24T11:29:26.343Z,5.09
2018-12-24T11:32:09.814Z,5.06
2018-12-24T11:34:41.948Z,5.12
2018-12-24T11:37:17.283Z,5.17
2018-12-24T11:39:49.375Z,5.17
2018-12-24T11:42:22.551Z,5.11
2018-12-24T11:44:54.693Z,5.11
2018-12-24T11:47:28.324Z,5.03
2018-12-24T11:50:02.637Z,5.01
2018-12-24T11:52:35.277Z,4.87
2018-12-24T11:55:10.436Z,4.87
2018-12-24T11:57:56.963Z,4.83
2018-12-24T12:00:33.330Z,4.83
2018-12-24T12:03:12.797Z,4.74
2018-12-24T12:05:45.269Z,4.74
2018-12-24T12:08:18.102Z,4.71
2018-12-24T12:10:51.068Z,4.74
2018-12-24T12:13:23.161Z,4.77
2018-12-24T12:16:02.463Z,4.73
2018-12-24T12:18:29.275Z,4.72
2018-12-24T12:21:07.293Z,4.67
2018-12-24T12:23:43.284Z,4.70
2018-12-24T12:26:23.230Z,4.74
2018-12-24T12:28:57.523Z,4.74
2018-12-24T12:31:38.073Z,4.70
2018-12-24T12:34:18.437Z,4.71
2018-12-24T12:37:06.676Z,4.72
2018-12-24T12:39:54.985Z,4.72
2018-12-24T12:42:33.587Z,4.80
2018-12-24T12:45:20.321Z,4.76
2018-12-24T12:48:07.020Z,4.66
2018-12-24T12:50:55.144Z,4.66
2018-12-24T12:53:35.365Z,4.61
2018-12-24T12:56:12.270Z,4.58
2018-12-24T12:58:46.631Z,4.51
2018-12-24T13:01:34.688Z,4.50
2018-12-24T13:04:21.357Z,4.52
2018-12-24T13:07:20.382Z,4.41
2018-12-24T13:10:20.485Z,4.43
2018-12-24T13:13:13.286Z,4.43
2018-12-24T13:15:59.362Z,4.37
2018-12-24T13:18:33.285Z,4.33
2018-12-24T13:21:05.484Z,4.26
2018-12-24T13:23:53.480Z,4.28
2018-12-24T13:26:35.294Z,4.25
2018-12-24T13:29:07.438Z,4.29
2018-12-24T13:31:52.604Z,4.21
2018-12-24T13:34:35.679Z,4.10
2018-12-24T13:37:10.968Z,4.01
2018-12-24T13:39:57.644Z,4.01
2018-12-24T13:42:38.492Z,3.87
2018-12-24T13:45:48.267Z,3.87
2018-12-24T13:48:58.423Z,3.89
2018-12-24T13:51:50.417Z,3.80
2018-12-24T13:55:01.441Z,3.77
2018-12-24T14:04:12.633Z,3.62
2018-12-24T14:07:19.581Z,3.58
2018-12-24T14:10:24.508Z,3.49
2018-12-24T14:13:03.427Z,3.52
2018-12-24T14:15:39.119Z,3.46
2018-12-24T14:18:16.837Z,3.46
2018-12-24T14:21:21.597Z,3.39
2018-12-24T14:24:04.655Z,3.28
2018-12-24T14:26:56.488Z,3.28
2018-12-24T14:29:58.038Z,3.25
2018-12-24T14:32:38.429Z,3.33
2018-12-24T14:35:13.230Z,3.26
2018-12-24T14:37:57.434Z,3.27
2018-12-24T14:40:38.019Z,3.16
2018-12-24T14:43:18.938Z,3.16
2018-12-24T14:46:07.013Z,3.14
2018-12-24T14:48:50.316Z,3.16
2018-12-24T14:51:30.812Z,3.06
2018-12-24T14:54:15.515Z,3.09
2018-12-24T14:57:17.384Z,2.98
2018-12-24T15:00:07.018Z,2.80
2018-12-24T15:03:08.814Z,2.87
2018-12-24T15:05:51.315Z,2.87
2018-12-24T15:08:41.137Z,2.87
2018-12-24T15:12:02.936Z,2.98
2018-12-24T15:15:26.677Z,2.97
2018-12-24T15:18:42.294Z,2.96
2018-12-24T15:24:39.889Z,2.74
2018-12-24T15:27:39.917Z,2.75
2018-12-24T15:30:45.234Z,2.85
2018-12-24T15:33:15.406Z,2.91
2018-12-24T15:36:03.422Z,2.91
2018-12-24T15:39:05.789Z,3.03
2018-12-24T15:42:12.249Z,3.03
2018-12-24T15:45:02.802Z,2.97
2018-12-24T15:47:48.284Z,2.97
2018-12-24T15:50:32.664Z,2.91
2018-12-24T15:53:25.437Z,2.83
2018-12-24T15:56:06.045Z,2.83
2018-12-24T15:58:57.309Z,2.76
2018-12-24T16:01:53.016Z,2.76
2018-12-24T16:05:01.338Z,2.80
2018-12-24T16:07:51.304Z,2.81
2018-12-24T16:10:41.898Z,2.81
2018-12-24T16:13:29.300Z,2.85
2018-12-24T16:16:06.410Z,2.85
2018-12-24T16:18:47.961Z,2.86
2018-12-24T16:21:29.967Z,2.86
2018-12-24T16:24:21.976Z,2.87
2018-12-24T16:27:17.357Z,2.85
2018-12-24T16:30:05.796Z,2.80
2018-12-24T16:33:05.494Z,2.81
2018-12-24T16:35:46.062Z,2.83
2018-12-24T16:38:45.300Z,2.77
2018-12-24T16:41:39.581Z,2.80
2018-12-24T16:44:20.584Z,2.80
2018-12-24T16:47:35.752Z,2.74
2018-12-24T16:50:11.787Z,2.71
2018-12-24T16:53:09.626Z,2.70
2018-12-24T16:56:02.068Z,2.73
2018-12-24T16:58:55.259Z,2.73
2018-12-24T17:01:54.254Z,2.79
2018-12-24T17:04:40.870Z,2.79
2018-12-24T17:07:22.545Z,2.76
2018-12-24T17:10:36.323Z,2.75
2018-12-24T17:13:23.797Z,2.74
2018-12-24T17:16:20.311Z,2.82
2018-12-24T17:19:31.115Z,2.75
2018-12-24T17:21:52.213Z,2.71
2018-12-24T17:25:16.763Z,2.67
2018-12-24T17:28:41.620Z,2.74
2018-12-24T17:32:47.589Z,2.79
2018-12-24T17:35:02.110Z,2.79
2018-12-24T17:37:39.275Z,2.71
2018-12-24T17:40:25.978Z,2.76
2018-12-24T17:43:21.425Z,2.76
2018-12-24T17:46:15.699Z,2.79
2018-12-24T17:49:32.575Z,2.77
2018-12-24T17:52:21.487Z,2.71
2018-12-24T17:55:11.373Z,2.66
2018-12-24T17:58:12.810Z,2.61
2018-12-24T18:01:15.490Z,2.61
2018-12-24T18:04:11.370Z,2.66
2018-12-24T18:07:03.606Z,2.57
2018-12-24T18:10:00.847Z,2.59
2018-12-24T18:12:52.026Z,2.59
2018-12-24T18:15:54.979Z,2.58
2018-12-24T18:18:43.501Z,2.60
2018-12-24T18:21:39.384Z,2.60
2018-12-24T18:24:22.628Z,2.57
2018-12-24T18:27:08.030Z,2.58
2018-12-24T18:30:13.667Z,2.60
2018-12-24T18:33:02.580Z,2.55
2018-12-24T18:35:48.293Z,2.55
2018-12-24T18:38:30.149Z,2.53
2018-12-24T18:41:12.435Z,2.53
2018-12-24T18:44:04.163Z,2.51
2018-12-24T18:46:45.044Z,2.51
2018-12-24T18:49:43.719Z,2.54
2018-12-24T18:52:38.978Z,2.62
2018-12-24T18:55:26.542Z,2.60
2018-12-24T18:58:10.137Z,2.56
2018-12-24T19:00:57.358Z,2.64
2018-12-24T19:03:26.952Z,2.64
2018-12-24T19:06:00.926Z,2.62
2018-12-24T19:08:33.368Z,2.65
2018-12-24T19:11:05.677Z,2.75
2018-12-24T19:13:37.772Z,2.75
2018-12-24T19:16:09.947Z,2.76
2018-12-24T19:18:42.270Z,2.69
2018-12-24T19:21:13.023Z,2.67
2018-12-24T19:23:52.287Z,2.64
2018-12-24T19:26:24.453Z,2.66
2018-12-24T19:28:58.727Z,2.85
2018-12-24T19:31:30.667Z,2.85
2018-12-24T19:34:02.854Z,2.64
2018-12-24T19:36:35.110Z,2.64
2018-12-24T19:39:09.287Z,2.45
2018-12-24T19:41:41.286Z,2.45
2018-12-24T19:44:13.281Z,2.50
2018-12-24T19:46:44.012Z,2.38
2018-12-24T19:49:16.157Z,2.38
2018-12-24T19:51:46.856Z,2.31
2018-12-24T19:54:18.948Z,2.40
2018-12-24T19:56:51.251Z,2.40
2018-12-24T19:59:23.412Z,2.29
2018-12-24T20:01:55.345Z,2.33
2018-12-24T20:04:27.364Z,2.33
2018-12-24T20:06:59.405Z,2.34
2018-12-24T20:09:31.625Z,2.34
2018-12-24T20:12:07.124Z,2.24
2018-12-24T20:14:37.857Z,2.28
2018-12-24T20:17:12.100Z,2.42
2018-12-24T20:19:44.352Z,2.41
2018-12-24T20:22:15.094Z,2.24
2018-12-24T20:24:47.964Z,2.30
2018-12-24T20:27:20.136Z,2.42
2018-12-24T20:29:50.999Z,2.42
2018-12-24T20:32:23.295Z,2.45
2018-12-24T20:34:54.284Z,2.57
2018-12-24T20:37:26.751Z,2.67
2018-12-24T20:39:59.121Z,2.67
2018-12-24T20:42:31.282Z,2.57
2018-12-24T20:45:03.334Z,2.61
2018-12-24T20:47:36.381Z,2.61
2018-12-24T20:50:08.654Z,2.65
2018-12-24T20:52:40.864Z,2.65
2018-12-24T20:55:13.283Z,2.74
2018-12-24T20:57:44.367Z,2.70
2018-12-24T21:00:16.375Z,2.75
2018-12-24T21:02:48.754Z,2.86
2018-12-24T21:05:21.138Z,2.86
2018-12-24T21:07:53.288Z,2.88
2018-12-24T21:10:24.027Z,2.82
2018-12-24T21:12:56.432Z,2.81
2018-12-24T21:15:28.909Z,2.93
2018-12-24T21:18:00.946Z,3.00
2018-12-24T21:20:33.143Z,2.92
2018-12-24T21:23:05.288Z,2.89
2018-12-24T21:25:35.898Z,2.88
2018-12-24T21:28:08.357Z,2.91
2018-12-24T21:30:39.414Z,2.80
2018-12-24T21:33:11.645Z,2.71
2018-12-24T21:35:43.934Z,2.69
2018-12-24T21:38:16.281Z,2.73
2018-12-24T21:40:47.063Z,2.66
2018-12-24T21:43:19.283Z,2.66
2018-12-24T21:45:49.867Z,2.76
2018-12-24T21:48:23.961Z,2.78
2018-12-24T21:53:24.912Z,2.79
2018-12-24T21:55:57.221Z,2.68
2018-12-24T21:58:28.045Z,2.68
2018-12-24T22:02:44.669Z,2.63
2018-12-24T22:05:16.747Z,2.65
2018-12-24T22:07:49.271Z,2.73
2018-12-24T22:10:19.791Z,2.79
2018-12-24T22:12:52.250Z,2.82
2018-12-24T22:15:23.058Z,2.89
2018-12-24T22:17:55.205Z,2.86
2018-12-24T22:20:26.003Z,2.81
2018-12-24T22:22:59.939Z,2.83
2018-12-24T22:25:34.003Z,2.74
2018-12-24T22:28:06.277Z,2.67
2018-12-24T22:30:36.697Z,2.68
2018-12-24T22:33:08.877Z,2.74
2018-12-24T22:35:41.273Z,2.87
2018-12-24T22:38:12.269Z,2.69
2018-12-24T22:40:42.857Z,2.60
2018-12-24T22:43:14.945Z,2.54
2018-12-24T22:45:47.108Z,2.55
2018-12-24T22:48:19.271Z,2.70
2018-12-24T22:50:51.266Z,2.58
2018-12-24T22:53:22.044Z,2.59
2018-12-24T22:55:54.279Z,2.59
2018-12-24T22:58:25.061Z,2.77
2018-12-24T23:00:57.280Z,2.88
2018-12-24T23:03:27.850Z,2.99
2018-12-24T23:06:00.250Z,2.99
2018-12-24T23:08:30.963Z,2.91
2018-12-24T23:11:03.279Z,2.78
2018-12-24T23:13:35.291Z,2.85
2018-12-24T23:16:07.300Z,2.85
2018-12-24T23:18:39.265Z,2.91
2018-12-24T23:21:09.807Z,2.89
2018-12-24T23:23:41.943Z,2.86
2018-12-24T23:26:14.086Z,2.92
2018-12-24T23:28:46.357Z,2.87
2018-12-24T23:31:18.573Z,2.93
2018-12-24T23:33:50.774Z,2.93
2018-12-24T23:36:22.869Z,2.87
2018-12-24T23:38:54.936Z,2.72
2018-12-24T23:41:26.940Z,2.81
2018-12-24T23:43:59.104Z,2.94
2018-12-24T23:46:31.296Z,2.86
2018-12-24T23:49:03.291Z,2.76
2018-12-24T23:51:33.860Z,2.89
2018-12-24T23:54:06.098Z,2.96
2018-12-24T23:56:38.256Z,3.05
2018-12-24T23:59:09.005Z,3.09
